National Weather Service United States Department of Commerce

Winter storm conditions possible for parts of Central Plains on Saturday

Widespread precipitation, including heavy snow, will push farther east on Saturday east across the central and southern Rockies. Snow will extend from the Rockies into the central High Plains by late Saturday, spreading farther east on Sunday, with moderate to heavy snows and gusty winds expected across portions of South Dakota and Minnesota by the end of the weekend. Read More >

                                      ZTL Airspace Summary / KTRI TAF                    For ATC Planning Purposes Only
ZTL Airspace Summary:
High pressure will dominate ZTL with VFR conditions under mostly clear skies over GA/SC/NC/VA but with building cloud cover over AL/TN. Surface winds will be northwest to southwest at 3-9kts and will become frequently calm. Flight Hazards: LGT-MOD Turbulence above FL210.

Updated:1/19/2018 8:28 PM
 

Tri-Cities Terminal Aerodrome Forecast:
 
FTUS44 KMRX 192320
TAFTRI
TAF
KTRI 192320Z 2000/2024 24004KT P6SM FEW250
     FM200900 00000KT P6SM OVC030
      TEMPO 2014/2018 BKN020
     FM201800 24005KT P6SM OVC030=

 

TRI METAR:  
SAUS80 KTRI 200500 RRB
METAR KTRI 200453Z 00000KT 10SM CLR M07/M09 A3020 RMK AO2 SLP233
     T10671094 400671128 $

Go to KTRI TAF TDA
Go to KTRI TAF TDA

TRI TRACON HAZARDS
TRI TRACON: SFC-10000
AVG CIG BASE WHERE REPORTED BLW 10000FT: NONE REPORTED
LOWEST REPORTED CIG: NONE REPORTED
LOWEST REPORTED FLIGHT CAT: VFR
METARS:
KTRI 200353Z 00000KT 10SM CLR M06/M09 A3020 RMK AO2 SLP236 T10561094 $
K0A9 200435Z AUTO 00000KT 10SM CLR M05/M09 A3021 RMK AO2
KVJI 200435Z AUTO 00000KT 10SM CLR M04/M10 A3018 RMK AO2 T10371096

TRI TRACON HAZARD

Forecast Surface Map Loop / Collaborative Convective Forecast Product / Vertical Wind Profile
Weather Map

 

AIRMETs & SIGMETS/ Southeast Radar loop / Satellite Image (click on image to enlarge)
Weather Map Southeast Radar Loop

satellite